sensor_id;sensor_type;location;lat;lon;timestamp;P1;durP1;ratioP1;P2;durP2;ratioP2
1975;SDS011;988;48.016;7.800;2022-09-09T00:03:42;20.90;;;19.37;;
1975;SDS011;988;48.016;7.800;2022-09-09T00:07:14;20.10;;;18.90;;
1975;SDS011;988;48.016;7.800;2022-09-09T00:09:16;19.40;;;18.20;;
1975;SDS011;988;48.016;7.800;2022-09-09T00:16:50;20.33;;;19.03;;
1975;SDS011;988;48.016;7.800;2022-09-09T00:19:30;20.10;;;19.00;;
1975;SDS011;988;48.016;7.800;2022-09-09T00:24:53;20.03;;;18.80;;
1975;SDS011;988;48.016;7.800;2022-09-09T00:33:33;19.40;;;18.20;;
1975;SDS011;988;48.016;7.800;2022-09-09T00:35:41;19.87;;;18.57;;
1975;SDS011;988;48.016;7.800;2022-09-09T00:38:55;19.57;;;18.47;;
1975;SDS011;988;48.016;7.800;2022-09-09T00:41:10;19.80;;;18.60;;
1975;SDS011;988;48.016;7.800;2022-09-09T00:43:39;19.60;;;18.50;;
1975;SDS011;988;48.016;7.800;2022-09-09T00:59:50;20.03;;;18.60;;
1975;SDS011;988;48.016;7.800;2022-09-09T01:04:53;19.60;;;18.40;;
1975;SDS011;988;48.016;7.800;2022-09-09T01:07:23;19.77;;;18.23;;
1975;SDS011;988;48.016;7.800;2022-09-09T01:09:51;19.70;;;18.60;;
1975;SDS011;988;48.016;7.800;2022-09-09T01:12:23;19.80;;;18.60;;
1975;SDS011;988;48.016;7.800;2022-09-09T01:15:09;19.50;;;18.40;;
1975;SDS011;988;48.016;7.800;2022-09-09T01:17:55;20.30;;;19.00;;
1975;SDS011;988;48.016;7.800;2022-09-09T01:20:31;19.20;;;18.10;;
1975;SDS011;988;48.016;7.800;2022-09-09T01:28:30;19.20;;;18.13;;
1975;SDS011;988;48.016;7.800;2022-09-09T01:31:00;20.00;;;18.80;;
1975;SDS011;988;48.016;7.800;2022-09-09T01:33:27;20.07;;;18.87;;
1975;SDS011;988;48.016;7.800;2022-09-09T01:36:28;19.73;;;18.60;;
1975;SDS011;988;48.016;7.800;2022-09-09T01:38:44;20.07;;;18.57;;
1975;SDS011;988;48.016;7.800;2022-09-09T01:41:10;20.73;;;19.33;;
1975;SDS011;988;48.016;7.800;2022-09-09T01:43:35;19.73;;;18.53;;
1975;SDS011;988;48.016;7.800;2022-09-09T01:46:02;19.90;;;18.70;;
1975;SDS011;988;48.016;7.800;2022-09-09T01:48:28;20.37;;;19.07;;
1975;SDS011;988;48.016;7.800;2022-09-09T01:50:54;19.83;;;18.73;;
1975;SDS011;988;48.016;7.800;2022-09-09T01:53:22;21.73;;;19.70;;
1975;SDS011;988;48.016;7.800;2022-09-09T01:56:12;21.03;;;19.50;;
1975;SDS011;988;48.016;7.800;2022-09-09T02:07:13;21.10;;;19.70;;
1975;SDS011;988;48.016;7.800;2022-09-09T02:09:52;20.27;;;18.93;;
1975;SDS011;988;48.016;7.800;2022-09-09T02:12:33;20.40;;;18.77;;
1975;SDS011;988;48.016;7.800;2022-09-09T02:15:07;20.03;;;18.83;;
1975;SDS011;988;48.016;7.800;2022-09-09T02:17:45;20.03;;;18.73;;
1975;SDS011;988;48.016;7.800;2022-09-09T02:20:14;20.00;;;18.60;;
1975;SDS011;988;48.016;7.800;2022-09-09T02:22:41;19.73;;;18.63;;
1975;SDS011;988;48.016;7.800;2022-09-09T02:25:10;19.73;;;18.50;;
1975;SDS011;988;48.016;7.800;2022-09-09T02:27:39;20.10;;;19.00;;
1975;SDS011;988;48.016;7.800;2022-09-09T02:30:08;20.13;;;18.70;;
1975;SDS011;988;48.016;7.800;2022-09-09T02:32:34;20.50;;;19.20;;
1975;SDS011;988;48.016;7.800;2022-09-09T02:35:06;20.40;;;19.10;;
1975;SDS011;988;48.016;7.800;2022-09-09T02:37:37;20.27;;;19.03;;
1975;SDS011;988;48.016;7.800;2022-09-09T02:40:04;20.50;;;19.30;;
1975;SDS011;988;48.016;7.800;2022-09-09T02:42:32;21.00;;;19.57;;
1975;SDS011;988;48.016;7.800;2022-09-09T02:45:05;21.23;;;19.70;;
1975;SDS011;988;48.016;7.800;2022-09-09T02:47:34;21.70;;;19.50;;
1975;SDS011;988;48.016;7.800;2022-09-09T02:50:13;21.63;;;20.10;;
1975;SDS011;988;48.016;7.800;2022-09-09T02:55:48;19.43;;;18.43;;
1975;SDS011;988;48.016;7.800;2022-09-09T02:58:34;20.50;;;19.30;;
1975;SDS011;988;48.016;7.800;2022-09-09T03:01:01;20.00;;;18.80;;
1975;SDS011;988;48.016;7.800;2022-09-09T03:03:28;20.00;;;18.90;;
1975;SDS011;988;48.016;7.800;2022-09-09T03:05:55;20.47;;;19.13;;
1975;SDS011;988;48.016;7.800;2022-09-09T03:08:21;21.33;;;19.73;;
1975;SDS011;988;48.016;7.800;2022-09-09T03:10:47;20.00;;;18.90;;
1975;SDS011;988;48.016;7.800;2022-09-09T03:13:13;20.60;;;18.50;;
1975;SDS011;988;48.016;7.800;2022-09-09T03:15:40;19.60;;;18.17;;
1975;SDS011;988;48.016;7.800;2022-09-09T03:18:05;19.40;;;18.10;;
1975;SDS011;988;48.016;7.800;2022-09-09T03:20:31;19.63;;;18.23;;
1975;SDS011;988;48.016;7.800;2022-09-09T03:22:57;19.50;;;18.30;;
1975;SDS011;988;48.016;7.800;2022-09-09T03:25:24;19.20;;;18.10;;
1975;SDS011;988;48.016;7.800;2022-09-09T03:27:51;20.07;;;18.20;;
1975;SDS011;988;48.016;7.800;2022-09-09T03:30:19;18.63;;;17.50;;
1975;SDS011;988;48.016;7.800;2022-09-09T03:32:54;18.83;;;17.53;;
1975;SDS011;988;48.016;7.800;2022-09-09T03:35:20;18.00;;;16.90;;
1975;SDS011;988;48.016;7.800;2022-09-09T03:37:46;19.13;;;18.03;;
1975;SDS011;988;48.016;7.800;2022-09-09T03:40:12;18.50;;;17.40;;
1975;SDS011;988;48.016;7.800;2022-09-09T03:42:38;19.40;;;18.00;;
1975;SDS011;988;48.016;7.800;2022-09-09T03:45:04;18.47;;;17.13;;
1975;SDS011;988;48.016;7.800;2022-09-09T03:47:32;18.13;;;16.70;;
1975;SDS011;988;48.016;7.800;2022-09-09T03:49:58;18.57;;;17.47;;
1975;SDS011;988;48.016;7.800;2022-09-09T03:52:23;18.70;;;17.30;;
1975;SDS011;988;48.016;7.800;2022-09-09T03:54:51;18.53;;;17.43;;
1975;SDS011;988;48.016;7.800;2022-09-09T03:57:17;18.97;;;17.57;;
1975;SDS011;988;48.016;7.800;2022-09-09T03:59:43;18.70;;;17.60;;
1975;SDS011;988;48.016;7.800;2022-09-09T04:02:09;18.17;;;17.17;;
1975;SDS011;988;48.016;7.800;2022-09-09T04:04:35;19.30;;;17.97;;
1975;SDS011;988;48.016;7.800;2022-09-09T04:07:00;18.50;;;17.40;;
1975;SDS011;988;48.016;7.800;2022-09-09T04:09:26;19.33;;;18.20;;
1975;SDS011;988;48.016;7.800;2022-09-09T04:11:52;19.60;;;18.27;;
1975;SDS011;988;48.016;7.800;2022-09-09T04:14:18;18.90;;;17.70;;
1975;SDS011;988;48.016;7.800;2022-09-09T04:16:44;18.63;;;17.53;;
1975;SDS011;988;48.016;7.800;2022-09-09T04:19:11;18.73;;;17.50;;
1975;SDS011;988;48.016;7.800;2022-09-09T04:21:38;18.80;;;17.50;;
1975;SDS011;988;48.016;7.800;2022-09-09T04:24:06;19.50;;;18.30;;
1975;SDS011;988;48.016;7.800;2022-09-09T04:26:32;19.43;;;18.33;;
1975;SDS011;988;48.016;7.800;2022-09-09T04:28:58;18.60;;;17.40;;
1975;SDS011;988;48.016;7.800;2022-09-09T04:31:24;19.20;;;18.10;;
1975;SDS011;988;48.016;7.800;2022-09-09T04:33:50;19.30;;;17.70;;
1975;SDS011;988;48.016;7.800;2022-09-09T04:36:16;18.33;;;17.23;;
1975;SDS011;988;48.016;7.800;2022-09-09T04:38:44;18.73;;;17.67;;
1975;SDS011;988;48.016;7.800;2022-09-09T04:41:10;18.07;;;16.87;;
1975;SDS011;988;48.016;7.800;2022-09-09T04:43:37;18.20;;;17.20;;
1975;SDS011;988;48.016;7.800;2022-09-09T04:46:04;18.77;;;17.30;;
1975;SDS011;988;48.016;7.800;2022-09-09T04:48:30;17.53;;;16.53;;
1975;SDS011;988;48.016;7.800;2022-09-09T04:51:06;18.10;;;17.10;;
1975;SDS011;988;48.016;7.800;2022-09-09T04:53:34;18.57;;;17.30;;
1975;SDS011;988;48.016;7.800;2022-09-09T04:56:07;18.97;;;17.77;;
1975;SDS011;988;48.016;7.800;2022-09-09T04:58:37;18.73;;;17.57;;
1975;SDS011;988;48.016;7.800;2022-09-09T05:01:05;19.17;;;17.80;;
1975;SDS011;988;48.016;7.800;2022-09-09T05:03:31;18.07;;;17.07;;
1975;SDS011;988;48.016;7.800;2022-09-09T05:06:07;19.33;;;17.93;;
1975;SDS011;988;48.016;7.800;2022-09-09T05:08:38;17.50;;;16.60;;
1975;SDS011;988;48.016;7.800;2022-09-09T05:11:14;18.13;;;16.90;;
1975;SDS011;988;48.016;7.800;2022-09-09T05:13:45;18.63;;;17.50;;
1975;SDS011;988;48.016;7.800;2022-09-09T05:16:11;18.20;;;16.87;;
1975;SDS011;988;48.016;7.800;2022-09-09T05:18:38;18.87;;;17.60;;
1975;SDS011;988;48.016;7.800;2022-09-09T05:21:04;18.63;;;17.60;;
1975;SDS011;988;48.016;7.800;2022-09-09T05:23:31;19.10;;;17.60;;
1975;SDS011;988;48.016;7.800;2022-09-09T05:25:57;17.80;;;16.80;;
1975;SDS011;988;48.016;7.800;2022-09-09T05:28:24;19.03;;;17.77;;
1975;SDS011;988;48.016;7.800;2022-09-09T05:31:01;18.80;;;17.60;;
1975;SDS011;988;48.016;7.800;2022-09-09T05:33:33;18.00;;;17.00;;
1975;SDS011;988;48.016;7.800;2022-09-09T05:36:01;17.97;;;16.73;;
1975;SDS011;988;48.016;7.800;2022-09-09T05:38:29;19.03;;;17.77;;
1975;SDS011;988;48.016;7.800;2022-09-09T05:40:55;17.80;;;16.90;;
1975;SDS011;988;48.016;7.800;2022-09-09T05:43:24;18.33;;;17.10;;
1975;SDS011;988;48.016;7.800;2022-09-09T05:48:29;18.90;;;17.80;;
1975;SDS011;988;48.016;7.800;2022-09-09T05:50:56;19.00;;;17.90;;
1975;SDS011;988;48.016;7.800;2022-09-09T05:53:22;18.60;;;17.57;;
1975;SDS011;988;48.016;7.800;2022-09-09T05:55:47;19.50;;;18.40;;
1975;SDS011;988;48.016;7.800;2022-09-09T05:58:13;19.10;;;17.90;;
1975;SDS011;988;48.016;7.800;2022-09-09T06:00:41;19.37;;;18.00;;
1975;SDS011;988;48.016;7.800;2022-09-09T06:03:10;19.03;;;17.93;;
1975;SDS011;988;48.016;7.800;2022-09-09T06:05:36;19.80;;;18.40;;
1975;SDS011;988;48.016;7.800;2022-09-09T06:08:02;18.43;;;17.43;;
1975;SDS011;988;48.016;7.800;2022-09-09T06:10:28;18.90;;;17.70;;
1975;SDS011;988;48.016;7.800;2022-09-09T06:12:53;19.10;;;17.80;;
1975;SDS011;988;48.016;7.800;2022-09-09T06:15:19;18.77;;;17.70;;
1975;SDS011;988;48.016;7.800;2022-09-09T06:17:45;18.00;;;17.00;;
1975;SDS011;988;48.016;7.800;2022-09-09T06:20:10;18.97;;;17.77;;
1975;SDS011;988;48.016;7.800;2022-09-09T06:22:39;18.17;;;17.00;;
1975;SDS011;988;48.016;7.800;2022-09-09T06:25:06;19.20;;;18.00;;
1975;SDS011;988;48.016;7.800;2022-09-09T06:27:33;18.90;;;17.70;;
1975;SDS011;988;48.016;7.800;2022-09-09T06:29:59;19.77;;;18.07;;
1975;SDS011;988;48.016;7.800;2022-09-09T06:32:24;18.63;;;17.53;;
1975;SDS011;988;48.016;7.800;2022-09-09T06:34:51;19.97;;;18.10;;
1975;SDS011;988;48.016;7.800;2022-09-09T06:37:17;18.10;;;17.20;;
1975;SDS011;988;48.016;7.800;2022-09-09T06:39:42;19.10;;;18.00;;
1975;SDS011;988;48.016;7.800;2022-09-09T06:42:08;20.40;;;18.60;;
1975;SDS011;988;48.016;7.800;2022-09-09T06:44:34;19.27;;;18.07;;
1975;SDS011;988;48.016;7.800;2022-09-09T06:46:59;19.10;;;18.10;;
1975;SDS011;988;48.016;7.800;2022-09-09T06:49:25;19.80;;;18.40;;
1975;SDS011;988;48.016;7.800;2022-09-09T06:51:51;18.77;;;17.73;;
1975;SDS011;988;48.016;7.800;2022-09-09T06:54:17;18.90;;;17.80;;
1975;SDS011;988;48.016;7.800;2022-09-09T06:56:43;19.80;;;18.30;;
1975;SDS011;988;48.016;7.800;2022-09-09T06:59:10;19.73;;;18.20;;
1975;SDS011;988;48.016;7.800;2022-09-09T07:01:41;19.00;;;18.00;;
1975;SDS011;988;48.016;7.800;2022-09-09T07:04:08;19.23;;;17.97;;
1975;SDS011;988;48.016;7.800;2022-09-09T07:09:26;19.80;;;18.20;;
1975;SDS011;988;48.016;7.800;2022-09-09T07:11:52;20.50;;;18.53;;
1975;SDS011;988;48.016;7.800;2022-09-09T07:14:18;20.20;;;18.80;;
1975;SDS011;988;48.016;7.800;2022-09-09T07:16:43;19.20;;;18.00;;
1975;SDS011;988;48.016;7.800;2022-09-09T07:19:11;20.33;;;18.87;;
1975;SDS011;988;48.016;7.800;2022-09-09T07:21:37;19.57;;;18.27;;
1975;SDS011;988;48.016;7.800;2022-09-09T07:24:05;20.67;;;19.37;;
1975;SDS011;988;48.016;7.800;2022-09-09T07:26:33;19.97;;;18.50;;
1975;SDS011;988;48.016;7.800;2022-09-09T07:28:58;20.70;;;19.00;;
1975;SDS011;988;48.016;7.800;2022-09-09T07:31:25;20.20;;;18.80;;
1975;SDS011;988;48.016;7.800;2022-09-09T07:33:52;20.40;;;19.00;;
1975;SDS011;988;48.016;7.800;2022-09-09T07:38:49;20.43;;;19.03;;
1975;SDS011;988;48.016;7.800;2022-09-09T07:41:30;20.50;;;19.10;;
1975;SDS011;988;48.016;7.800;2022-09-09T07:43:59;20.67;;;18.60;;
1975;SDS011;988;48.016;7.800;2022-09-09T07:46:28;21.30;;;19.70;;
1975;SDS011;988;48.016;7.800;2022-09-09T07:48:54;20.20;;;19.00;;
1975;SDS011;988;48.016;7.800;2022-09-09T07:51:28;21.13;;;19.70;;
1975;SDS011;988;48.016;7.800;2022-09-09T07:53:56;20.80;;;19.30;;
1975;SDS011;988;48.016;7.800;2022-09-09T07:56:24;21.13;;;19.83;;
1975;SDS011;988;48.016;7.800;2022-09-09T07:58:51;21.57;;;19.97;;
1975;SDS011;988;48.016;7.800;2022-09-09T08:03:55;20.37;;;19.10;;
1975;SDS011;988;48.016;7.800;2022-09-09T08:06:33;20.80;;;19.30;;
1975;SDS011;988;48.016;7.800;2022-09-09T08:09:01;20.00;;;18.80;;
1975;SDS011;988;48.016;7.800;2022-09-09T08:11:27;20.90;;;19.70;;
1975;SDS011;988;48.016;7.800;2022-09-09T08:13:54;20.70;;;19.40;;
1975;SDS011;988;48.016;7.800;2022-09-09T08:16:21;21.87;;;20.17;;
1975;SDS011;988;48.016;7.800;2022-09-09T08:18:51;21.77;;;19.87;;
1975;SDS011;988;48.016;7.800;2022-09-09T08:21:20;20.73;;;19.53;;
1975;SDS011;988;48.016;7.800;2022-09-09T08:23:49;21.00;;;19.53;;
1975;SDS011;988;48.016;7.800;2022-09-09T08:26:18;21.07;;;19.33;;
1975;SDS011;988;48.016;7.800;2022-09-09T08:28:47;20.93;;;19.53;;
1975;SDS011;988;48.016;7.800;2022-09-09T08:31:17;21.33;;;19.73;;
1975;SDS011;988;48.016;7.800;2022-09-09T08:33:46;21.47;;;19.87;;
1975;SDS011;988;48.016;7.800;2022-09-09T08:36:14;22.20;;;20.80;;
1975;SDS011;988;48.016;7.800;2022-09-09T08:38:51;21.07;;;19.70;;
1975;SDS011;988;48.016;7.800;2022-09-09T08:54:38;22.10;;;20.27;;
1975;SDS011;988;48.016;7.800;2022-09-09T08:57:05;21.97;;;20.47;;
1975;SDS011;988;48.016;7.800;2022-09-09T08:59:44;21.30;;;19.97;;
1975;SDS011;988;48.016;7.800;2022-09-09T09:02:18;23.17;;;21.27;;
1975;SDS011;988;48.016;7.800;2022-09-09T09:12:40;22.40;;;20.23;;
1975;SDS011;988;48.016;7.800;2022-09-09T09:15:14;21.43;;;20.13;;
1975;SDS011;988;48.016;7.800;2022-09-09T09:17:50;21.70;;;19.90;;
1975;SDS011;988;48.016;7.800;2022-09-09T09:20:16;22.30;;;21.00;;
1975;SDS011;988;48.016;7.800;2022-09-09T09:22:50;24.07;;;22.33;;
1975;SDS011;988;48.016;7.800;2022-09-09T09:30:26;23.50;;;21.70;;
1975;SDS011;988;48.016;7.800;2022-09-09T09:35:31;24.50;;;22.27;;
1975;SDS011;988;48.016;7.800;2022-09-09T09:37:56;22.63;;;21.30;;
1975;SDS011;988;48.016;7.800;2022-09-09T09:40:25;22.73;;;21.27;;
1975;SDS011;988;48.016;7.800;2022-09-09T09:45:22;22.60;;;20.90;;
1975;SDS011;988;48.016;7.800;2022-09-09T09:47:57;21.40;;;20.10;;
1975;SDS011;988;48.016;7.800;2022-09-09T09:50:28;21.83;;;20.53;;
1975;SDS011;988;48.016;7.800;2022-09-09T09:52:55;22.00;;;20.67;;
1975;SDS011;988;48.016;7.800;2022-09-09T09:55:22;22.27;;;20.53;;
1975;SDS011;988;48.016;7.800;2022-09-09T09:57:49;22.17;;;20.60;;
1975;SDS011;988;48.016;7.800;2022-09-09T10:02:43;22.03;;;20.70;;
1975;SDS011;988;48.016;7.800;2022-09-09T10:05:21;23.17;;;21.37;;
1975;SDS011;988;48.016;7.800;2022-09-09T10:08:04;22.10;;;20.90;;
1975;SDS011;988;48.016;7.800;2022-09-09T10:10:40;22.50;;;20.80;;
1975;SDS011;988;48.016;7.800;2022-09-09T10:13:33;21.60;;;20.27;;
1975;SDS011;988;48.016;7.800;2022-09-09T10:19:04;21.80;;;20.50;;
1975;SDS011;988;48.016;7.800;2022-09-09T10:33:08;21.03;;;19.73;;
1975;SDS011;988;48.016;7.800;2022-09-09T10:36:00;21.37;;;19.90;;
1975;SDS011;988;48.016;7.800;2022-09-09T10:41:09;22.13;;;20.50;;
1975;SDS011;988;48.016;7.800;2022-09-09T10:57:47;23.00;;;21.30;;
1975;SDS011;988;48.016;7.800;2022-09-09T11:00:22;23.53;;;21.63;;
1975;SDS011;988;48.016;7.800;2022-09-09T11:03:00;22.43;;;21.03;;
1975;SDS011;988;48.016;7.800;2022-09-09T11:05:29;23.57;;;21.77;;
1975;SDS011;988;48.016;7.800;2022-09-09T11:08:09;23.00;;;21.40;;
1975;SDS011;988;48.016;7.800;2022-09-09T11:10:55;23.27;;;21.60;;
1975;SDS011;988;48.016;7.800;2022-09-09T11:15:58;21.50;;;20.20;;
1975;SDS011;988;48.016;7.800;2022-09-09T11:18:45;22.10;;;20.33;;
1975;SDS011;988;48.016;7.800;2022-09-09T11:21:34;22.03;;;20.63;;
1975;SDS011;988;48.016;7.800;2022-09-09T11:24:44;21.10;;;19.90;;
1975;SDS011;988;48.016;7.800;2022-09-09T11:27:11;21.63;;;20.03;;
1975;SDS011;988;48.016;7.800;2022-09-09T11:38:02;21.90;;;20.30;;
1975;SDS011;988;48.016;7.800;2022-09-09T11:40:54;22.20;;;20.70;;
1975;SDS011;988;48.016;7.800;2022-09-09T11:43:32;22.50;;;21.00;;
1975;SDS011;988;48.016;7.800;2022-09-09T11:46:05;22.30;;;20.87;;
1975;SDS011;988;48.016;7.800;2022-09-09T11:48:42;22.30;;;20.80;;
1975;SDS011;988;48.016;7.800;2022-09-09T11:53:52;22.63;;;21.13;;
1975;SDS011;988;48.016;7.800;2022-09-09T11:56:29;22.07;;;20.47;;
1975;SDS011;988;48.016;7.800;2022-09-09T11:58:57;22.20;;;20.80;;
1975;SDS011;988;48.016;7.800;2022-09-09T12:01:35;21.67;;;20.20;;
1975;SDS011;988;48.016;7.800;2022-09-09T12:06:44;21.97;;;20.57;;
1975;SDS011;988;48.016;7.800;2022-09-09T12:09:20;22.13;;;20.03;;
1975;SDS011;988;48.016;7.800;2022-09-09T12:12:16;20.53;;;19.30;;
1975;SDS011;988;48.016;7.800;2022-09-09T12:15:03;22.00;;;20.43;;
1975;SDS011;988;48.016;7.800;2022-09-09T12:28:23;22.03;;;20.23;;
1975;SDS011;988;48.016;7.800;2022-09-09T12:33:42;22.60;;;21.10;;
1975;SDS011;988;48.016;7.800;2022-09-09T12:36:15;22.03;;;20.50;;
1975;SDS011;988;48.016;7.800;2022-09-09T12:38:50;22.23;;;20.63;;
1975;SDS011;988;48.016;7.800;2022-09-09T12:41:21;23.00;;;20.93;;
1975;SDS011;988;48.016;7.800;2022-09-09T12:43:51;22.00;;;20.50;;
1975;SDS011;988;48.016;7.800;2022-09-09T12:46:48;21.80;;;20.30;;
1975;SDS011;988;48.016;7.800;2022-09-09T12:49:26;21.50;;;20.20;;
1975;SDS011;988;48.016;7.800;2022-09-09T12:52:09;21.90;;;20.40;;
1975;SDS011;988;48.016;7.800;2022-09-09T12:54:42;21.17;;;19.97;;
1975;SDS011;988;48.016;7.800;2022-09-09T12:57:11;20.80;;;19.50;;
1975;SDS011;988;48.016;7.800;2022-09-09T12:59:39;21.60;;;20.00;;
1975;SDS011;988;48.016;7.800;2022-09-09T13:02:25;21.27;;;19.77;;
1975;SDS011;988;48.016;7.800;2022-09-09T13:04:52;21.60;;;20.27;;
1975;SDS011;988;48.016;7.800;2022-09-09T13:07:19;21.10;;;19.83;;
1975;SDS011;988;48.016;7.800;2022-09-09T13:09:47;21.00;;;19.80;;
1975;SDS011;988;48.016;7.800;2022-09-09T13:12:21;21.20;;;19.80;;
1975;SDS011;988;48.016;7.800;2022-09-09T13:14:53;21.17;;;19.70;;
1975;SDS011;988;48.016;7.800;2022-09-09T13:17:22;22.00;;;20.10;;
1975;SDS011;988;48.016;7.800;2022-09-09T13:19:50;20.47;;;19.17;;
1975;SDS011;988;48.016;7.800;2022-09-09T13:25:03;21.53;;;19.63;;
1975;SDS011;988;48.016;7.800;2022-09-09T13:29:56;19.90;;;18.50;;
1975;SDS011;988;48.016;7.800;2022-09-09T13:32:22;19.43;;;18.30;;
1975;SDS011;988;48.016;7.800;2022-09-09T13:34:50;20.17;;;18.83;;
1975;SDS011;988;48.016;7.800;2022-09-09T13:37:50;19.40;;;18.30;;
1975;SDS011;988;48.016;7.800;2022-09-09T13:40:16;21.63;;;19.80;;
1975;SDS011;988;48.016;7.800;2022-09-09T13:42:44;19.73;;;18.63;;
1975;SDS011;988;48.016;7.800;2022-09-09T13:45:19;19.57;;;18.47;;
1975;SDS011;988;48.016;7.800;2022-09-09T13:47:48;22.20;;;19.90;;
1975;SDS011;988;48.016;7.800;2022-09-09T13:52:51;20.50;;;19.20;;
1975;SDS011;988;48.016;7.800;2022-09-09T13:55:27;20.30;;;19.20;;
1975;SDS011;988;48.016;7.800;2022-09-09T13:57:55;20.23;;;19.00;;
1975;SDS011;988;48.016;7.800;2022-09-09T14:00:29;20.90;;;19.60;;
1975;SDS011;988;48.016;7.800;2022-09-09T14:03:04;20.83;;;19.53;;
1975;SDS011;988;48.016;7.800;2022-09-09T14:05:33;21.43;;;20.10;;
1975;SDS011;988;48.016;7.800;2022-09-09T14:07:59;20.53;;;19.43;;
1975;SDS011;988;48.016;7.800;2022-09-09T14:10:25;20.90;;;19.70;;
1975;SDS011;988;48.016;7.800;2022-09-09T14:12:51;20.87;;;19.67;;
1975;SDS011;988;48.016;7.800;2022-09-09T14:15:17;21.13;;;19.63;;
1975;SDS011;988;48.016;7.800;2022-09-09T14:17:44;20.70;;;19.47;;
1975;SDS011;988;48.016;7.800;2022-09-09T14:20:09;20.00;;;18.80;;
1975;SDS011;988;48.016;7.800;2022-09-09T14:22:36;20.70;;;19.40;;
1975;SDS011;988;48.016;7.800;2022-09-09T14:25:04;21.17;;;19.70;;
1975;SDS011;988;48.016;7.800;2022-09-09T14:27:31;20.20;;;19.00;;
1975;SDS011;988;48.016;7.800;2022-09-09T14:29:57;20.30;;;19.20;;
1975;SDS011;988;48.016;7.800;2022-09-09T14:32:23;21.17;;;19.80;;
1975;SDS011;988;48.016;7.800;2022-09-09T14:34:48;21.00;;;19.80;;
1975;SDS011;988;48.016;7.800;2022-09-09T14:37:17;21.73;;;20.33;;
1975;SDS011;988;48.016;7.800;2022-09-09T14:39:43;21.10;;;19.90;;
1975;SDS011;988;48.016;7.800;2022-09-09T14:42:12;21.90;;;20.57;;
1975;SDS011;988;48.016;7.800;2022-09-09T14:44:38;21.37;;;20.07;;
1975;SDS011;988;48.016;7.800;2022-09-09T14:47:05;21.97;;;20.40;;
1975;SDS011;988;48.016;7.800;2022-09-09T14:49:32;22.00;;;20.60;;
1975;SDS011;988;48.016;7.800;2022-09-09T14:51:59;22.10;;;20.70;;
1975;SDS011;988;48.016;7.800;2022-09-09T14:54:24;22.30;;;20.50;;
1975;SDS011;988;48.016;7.800;2022-09-09T14:56:50;22.57;;;21.17;;
1975;SDS011;988;48.016;7.800;2022-09-09T14:59:16;21.43;;;19.93;;
1975;SDS011;988;48.016;7.800;2022-09-09T15:01:41;20.60;;;19.23;;
1975;SDS011;988;48.016;7.800;2022-09-09T15:04:07;21.60;;;20.00;;
1975;SDS011;988;48.016;7.800;2022-09-09T15:06:34;20.97;;;19.60;;
1975;SDS011;988;48.016;7.800;2022-09-09T15:09:02;20.57;;;19.33;;
1975;SDS011;988;48.016;7.800;2022-09-09T15:11:29;19.93;;;18.83;;
1975;SDS011;988;48.016;7.800;2022-09-09T15:13:59;22.13;;;20.70;;
1975;SDS011;988;48.016;7.800;2022-09-09T15:16:26;21.20;;;20.00;;
1975;SDS011;988;48.016;7.800;2022-09-09T15:18:56;20.87;;;19.33;;
1975;SDS011;988;48.016;7.800;2022-09-09T15:21:24;20.93;;;19.73;;
1975;SDS011;988;48.016;7.800;2022-09-09T15:23:51;21.10;;;19.80;;
1975;SDS011;988;48.016;7.800;2022-09-09T15:26:17;20.80;;;19.40;;
1975;SDS011;988;48.016;7.800;2022-09-09T15:28:44;20.40;;;19.10;;
1975;SDS011;988;48.016;7.800;2022-09-09T15:38:50;20.30;;;19.10;;
1975;SDS011;988;48.016;7.800;2022-09-09T15:41:16;21.93;;;20.43;;
1975;SDS011;988;48.016;7.800;2022-09-09T15:43:47;20.70;;;19.10;;
1975;SDS011;988;48.016;7.800;2022-09-09T15:48:49;19.60;;;18.20;;
1975;SDS011;988;48.016;7.800;2022-09-09T15:51:15;19.70;;;18.40;;
1975;SDS011;988;48.016;7.800;2022-09-09T15:53:41;19.20;;;18.10;;
1975;SDS011;988;48.016;7.800;2022-09-09T15:56:07;18.50;;;17.50;;
1975;SDS011;988;48.016;7.800;2022-09-09T15:58:33;18.50;;;17.30;;
1975;SDS011;988;48.016;7.800;2022-09-09T16:01:05;19.07;;;17.93;;
1975;SDS011;988;48.016;7.800;2022-09-09T16:03:35;19.20;;;18.20;;
1975;SDS011;988;48.016;7.800;2022-09-09T16:06:12;18.50;;;17.50;;
1975;SDS011;988;48.016;7.800;2022-09-09T16:08:40;18.37;;;17.37;;
1975;SDS011;988;48.016;7.800;2022-09-09T16:11:12;19.27;;;17.90;;
1975;SDS011;988;48.016;7.800;2022-09-09T16:13:42;19.23;;;17.70;;
1975;SDS011;988;48.016;7.800;2022-09-09T16:16:12;18.40;;;17.23;;
1975;SDS011;988;48.016;7.800;2022-09-09T16:18:42;18.40;;;17.30;;
1975;SDS011;988;48.016;7.800;2022-09-09T16:21:13;18.33;;;17.20;;
1975;SDS011;988;48.016;7.800;2022-09-09T16:23:44;18.40;;;17.20;;
1975;SDS011;988;48.016;7.800;2022-09-09T16:26:10;18.10;;;16.70;;
1975;SDS011;988;48.016;7.800;2022-09-09T16:28:37;17.13;;;16.20;;
1975;SDS011;988;48.016;7.800;2022-09-09T16:31:07;16.50;;;15.50;;
1975;SDS011;988;48.016;7.800;2022-09-09T16:33:35;16.73;;;15.80;;
1975;SDS011;988;48.016;7.800;2022-09-09T16:36:08;18.17;;;16.70;;
1975;SDS011;988;48.016;7.800;2022-09-09T16:38:35;17.47;;;16.47;;
1975;SDS011;988;48.016;7.800;2022-09-09T16:41:02;18.60;;;16.90;;
1975;SDS011;988;48.016;7.800;2022-09-09T16:43:33;17.20;;;16.30;;
1975;SDS011;988;48.016;7.800;2022-09-09T16:46:01;17.53;;;16.50;;
1975;SDS011;988;48.016;7.800;2022-09-09T16:48:31;19.03;;;17.60;;
1975;SDS011;988;48.016;7.800;2022-09-09T16:51:05;18.63;;;17.63;;
1975;SDS011;988;48.016;7.800;2022-09-09T16:53:35;18.10;;;17.00;;
1975;SDS011;988;48.016;7.800;2022-09-09T16:56:14;18.37;;;17.27;;
1975;SDS011;988;48.016;7.800;2022-09-09T16:58:49;18.40;;;17.20;;
1975;SDS011;988;48.016;7.800;2022-09-09T17:01:16;18.07;;;17.07;;
1975;SDS011;988;48.016;7.800;2022-09-09T17:03:54;18.00;;;17.00;;
1975;SDS011;988;48.016;7.800;2022-09-09T17:06:21;17.87;;;16.90;;
1975;SDS011;988;48.016;7.800;2022-09-09T17:08:47;17.50;;;16.50;;
1975;SDS011;988;48.016;7.800;2022-09-09T17:11:18;17.40;;;16.40;;
1975;SDS011;988;48.016;7.800;2022-09-09T17:13:45;18.47;;;17.30;;
1975;SDS011;988;48.016;7.800;2022-09-09T17:16:11;18.13;;;17.10;;
1975;SDS011;988;48.016;7.800;2022-09-09T17:18:49;17.83;;;16.57;;
1975;SDS011;988;48.016;7.800;2022-09-09T17:21:19;17.80;;;16.80;;
1975;SDS011;988;48.016;7.800;2022-09-09T17:23:50;17.60;;;16.60;;
1975;SDS011;988;48.016;7.800;2022-09-09T17:26:25;17.20;;;16.20;;
1975;SDS011;988;48.016;7.800;2022-09-09T17:28:55;17.30;;;16.30;;
1975;SDS011;988;48.016;7.800;2022-09-09T17:31:23;17.03;;;16.13;;
1975;SDS011;988;48.016;7.800;2022-09-09T17:33:50;18.13;;;17.00;;
1975;SDS011;988;48.016;7.800;2022-09-09T17:36:33;18.53;;;17.23;;
1975;SDS011;988;48.016;7.800;2022-09-09T17:39:05;18.67;;;17.57;;
1975;SDS011;988;48.016;7.800;2022-09-09T17:41:35;16.73;;;15.73;;
1975;SDS011;988;48.016;7.800;2022-09-09T17:44:02;17.43;;;16.43;;
1975;SDS011;988;48.016;7.800;2022-09-09T17:46:29;17.70;;;16.20;;
1975;SDS011;988;48.016;7.800;2022-09-09T17:48:58;17.53;;;16.30;;
1975;SDS011;988;48.016;7.800;2022-09-09T17:51:26;17.30;;;16.17;;
1975;SDS011;988;48.016;7.800;2022-09-09T17:53:59;16.47;;;15.60;;
1975;SDS011;988;48.016;7.800;2022-09-09T17:56:31;18.00;;;16.87;;
1975;SDS011;988;48.016;7.800;2022-09-09T17:59:04;18.30;;;17.00;;
1975;SDS011;988;48.016;7.800;2022-09-09T18:01:32;17.80;;;16.80;;
1975;SDS011;988;48.016;7.800;2022-09-09T18:04:12;17.50;;;16.40;;
1975;SDS011;988;48.016;7.800;2022-09-09T18:06:47;17.50;;;16.60;;
1975;SDS011;988;48.016;7.800;2022-09-09T18:09:36;16.93;;;15.70;;
1975;SDS011;988;48.016;7.800;2022-09-09T18:12:07;16.80;;;15.90;;